sensor_id;sensor_type;location;lat;lon;timestamp;temperature;humidity
70309;DHT22;57716;50.896;4.440;2023-03-01T00:02:00;-0.70;99.90
70309;DHT22;57716;50.896;4.440;2023-03-01T00:04:27;-0.50;99.90
70309;DHT22;57716;50.896;4.440;2023-03-01T00:06:53;-0.60;99.90
70309;DHT22;57716;50.896;4.440;2023-03-01T00:09:20;-0.60;99.90
70309;DHT22;57716;50.896;4.440;2023-03-01T00:11:46;-0.50;99.90
70309;DHT22;57716;50.896;4.440;2023-03-01T00:14:12;-0.50;99.90
70309;DHT22;57716;50.896;4.440;2023-03-01T00:16:40;-0.40;99.90
70309;DHT22;57716;50.896;4.440;2023-03-01T00:19:07;-0.40;99.90
70309;DHT22;57716;50.896;4.440;2023-03-01T00:21:33;-0.40;99.90
70309;DHT22;57716;50.896;4.440;2023-03-01T00:24:01;-0.60;99.90
70309;DHT22;57716;50.896;4.440;2023-03-01T00:26:27;-0.70;99.90
70309;DHT22;57716;50.896;4.440;2023-03-01T00:28:54;-0.40;99.90
70309;DHT22;57716;50.896;4.440;2023-03-01T00:31:22;-0.70;99.90
70309;DHT22;57716;50.896;4.440;2023-03-01T00:33:51;-1.00;99.90
70309;DHT22;57716;50.896;4.440;2023-03-01T00:36:17;-1.10;99.90
70309;DHT22;57716;50.896;4.440;2023-03-01T00:38:45;-1.10;99.90
70309;DHT22;57716;50.896;4.440;2023-03-01T00:41:13;-0.90;99.90
70309;DHT22;57716;50.896;4.440;2023-03-01T00:43:39;-0.90;99.90
70309;DHT22;57716;50.896;4.440;2023-03-01T00:46:10;-1.10;99.90
70309;DHT22;57716;50.896;4.440;2023-03-01T00:48:39;-0.90;99.90
70309;DHT22;57716;50.896;4.440;2023-03-01T00:51:09;-1.10;99.90
70309;DHT22;57716;50.896;4.440;2023-03-01T00:53:35;-1.10;99.90
70309;DHT22;57716;50.896;4.440;2023-03-01T00:56:01;-1.00;99.90
70309;DHT22;57716;50.896;4.440;2023-03-01T00:58:27;-1.00;99.90
70309;DHT22;57716;50.896;4.440;2023-03-01T01:00:53;-0.90;99.90
70309;DHT22;57716;50.896;4.440;2023-03-01T01:03:19;-1.10;99.90
70309;DHT22;57716;50.896;4.440;2023-03-01T01:05:45;-1.10;99.90
70309;DHT22;57716;50.896;4.440;2023-03-01T01:08:11;-1.10;99.90
70309;DHT22;57716;50.896;4.440;2023-03-01T01:10:38;-0.90;99.90
70309;DHT22;57716;50.896;4.440;2023-03-01T01:13:04;-1.00;99.90
70309;DHT22;57716;50.896;4.440;2023-03-01T01:15:33;-1.00;99.90
70309;DHT22;57716;50.896;4.440;2023-03-01T01:17:59;-0.90;99.90
70309;DHT22;57716;50.896;4.440;2023-03-01T01:20:25;-1.10;99.90
70309;DHT22;57716;50.896;4.440;2023-03-01T01:22:51;-1.10;99.90
70309;DHT22;57716;50.896;4.440;2023-03-01T01:25:17;-1.10;99.90
70309;DHT22;57716;50.896;4.440;2023-03-01T01:27:42;-1.20;99.90
70309;DHT22;57716;50.896;4.440;2023-03-01T01:30:09;-1.10;99.90
70309;DHT22;57716;50.896;4.440;2023-03-01T01:32:34;-1.10;99.90
70309;DHT22;57716;50.896;4.440;2023-03-01T01:35:00;-1.00;99.90
70309;DHT22;57716;50.896;4.440;2023-03-01T01:37:26;-1.10;99.90
70309;DHT22;57716;50.896;4.440;2023-03-01T01:40:00;-1.20;99.90
70309;DHT22;57716;50.896;4.440;2023-03-01T01:42:26;-1.10;99.90
70309;DHT22;57716;50.896;4.440;2023-03-01T01:47:59;-1.20;99.90
70309;DHT22;57716;50.896;4.440;2023-03-01T01:50:26;-1.10;99.90
70309;DHT22;57716;50.896;4.440;2023-03-01T01:52:53;-1.20;99.90
70309;DHT22;57716;50.896;4.440;2023-03-01T01:55:25;-1.10;99.90
70309;DHT22;57716;50.896;4.440;2023-03-01T01:57:59;-0.90;99.90
70309;DHT22;57716;50.896;4.440;2023-03-01T02:00:29;-1.10;99.90
70309;DHT22;57716;50.896;4.440;2023-03-01T02:02:57;-0.90;99.90
70309;DHT22;57716;50.896;4.440;2023-03-01T02:08:20;-0.80;99.90
70309;DHT22;57716;50.896;4.440;2023-03-01T02:10:48;-0.70;99.90
70309;DHT22;57716;50.896;4.440;2023-03-01T02:13:15;-0.60;99.90
70309;DHT22;57716;50.896;4.440;2023-03-01T02:15:41;-0.90;99.90
70309;DHT22;57716;50.896;4.440;2023-03-01T02:18:11;-0.60;99.90
70309;DHT22;57716;50.896;4.440;2023-03-01T02:20:40;-0.70;99.90
70309;DHT22;57716;50.896;4.440;2023-03-01T02:23:11;-1.00;99.90
70309;DHT22;57716;50.896;4.440;2023-03-01T02:28:36;-1.20;99.90
70309;DHT22;57716;50.896;4.440;2023-03-01T02:31:05;-1.40;99.90
70309;DHT22;57716;50.896;4.440;2023-03-01T02:33:53;-1.60;99.90
70309;DHT22;57716;50.896;4.440;2023-03-01T02:36:24;-1.40;99.90
70309;DHT22;57716;50.896;4.440;2023-03-01T02:38:55;-1.40;99.90
70309;DHT22;57716;50.896;4.440;2023-03-01T02:41:22;-1.20;99.90
70309;DHT22;57716;50.896;4.440;2023-03-01T02:43:50;-1.30;99.90
70309;DHT22;57716;50.896;4.440;2023-03-01T02:46:21;-1.60;99.90
70309;DHT22;57716;50.896;4.440;2023-03-01T02:48:50;-1.50;99.90
70309;DHT22;57716;50.896;4.440;2023-03-01T02:54:27;-1.60;99.90
70309;DHT22;57716;50.896;4.440;2023-03-01T02:56:54;-1.60;99.90
70309;DHT22;57716;50.896;4.440;2023-03-01T02:59:23;-1.50;99.90
70309;DHT22;57716;50.896;4.440;2023-03-01T03:01:49;-1.80;99.90
70309;DHT22;57716;50.896;4.440;2023-03-01T03:04:17;-1.80;99.90
70309;DHT22;57716;50.896;4.440;2023-03-01T03:06:44;-1.60;99.90
70309;DHT22;57716;50.896;4.440;2023-03-01T03:09:11;-1.80;99.90
70309;DHT22;57716;50.896;4.440;2023-03-01T03:11:37;-1.70;99.90
70309;DHT22;57716;50.896;4.440;2023-03-01T03:14:04;-1.80;99.90
70309;DHT22;57716;50.896;4.440;2023-03-01T03:16:30;-1.80;99.90
70309;DHT22;57716;50.896;4.440;2023-03-01T03:18:56;-1.60;99.90
70309;DHT22;57716;50.896;4.440;2023-03-01T03:21:33;-1.90;99.90
70309;DHT22;57716;50.896;4.440;2023-03-01T03:23:59;-1.80;99.90
70309;DHT22;57716;50.896;4.440;2023-03-01T03:26:25;-1.90;99.90
70309;DHT22;57716;50.896;4.440;2023-03-01T03:28:51;-1.90;99.90
70309;DHT22;57716;50.896;4.440;2023-03-01T03:31:17;-1.90;99.90
70309;DHT22;57716;50.896;4.440;2023-03-01T03:33:42;-2.00;99.90
70309;DHT22;57716;50.896;4.440;2023-03-01T03:36:08;-1.90;99.90
70309;DHT22;57716;50.896;4.440;2023-03-01T03:38:43;-1.90;99.90
70309;DHT22;57716;50.896;4.440;2023-03-01T03:41:09;-1.80;99.90
70309;DHT22;57716;50.896;4.440;2023-03-01T03:43:38;-2.00;99.90
70309;DHT22;57716;50.896;4.440;2023-03-01T03:46:04;-1.90;99.90
70309;DHT22;57716;50.896;4.440;2023-03-01T03:48:35;-1.70;99.90
70309;DHT22;57716;50.896;4.440;2023-03-01T03:51:01;-2.00;99.90
70309;DHT22;57716;50.896;4.440;2023-03-01T03:53:28;-2.00;99.90
70309;DHT22;57716;50.896;4.440;2023-03-01T03:55:54;-1.90;99.90
70309;DHT22;57716;50.896;4.440;2023-03-01T03:58:22;-1.90;99.90
70309;DHT22;57716;50.896;4.440;2023-03-01T04:00:51;-1.80;99.90
70309;DHT22;57716;50.896;4.440;2023-03-01T04:03:18;-1.80;99.90
70309;DHT22;57716;50.896;4.440;2023-03-01T04:05:45;-1.70;99.90
70309;DHT22;57716;50.896;4.440;2023-03-01T04:08:11;-1.90;99.90
70309;DHT22;57716;50.896;4.440;2023-03-01T04:10:40;-1.70;99.90
70309;DHT22;57716;50.896;4.440;2023-03-01T04:13:07;-1.70;99.90
70309;DHT22;57716;50.896;4.440;2023-03-01T04:15:34;-1.50;99.90
70309;DHT22;57716;50.896;4.440;2023-03-01T04:18:00;-1.80;99.90
70309;DHT22;57716;50.896;4.440;2023-03-01T04:20:32;-1.80;99.90
70309;DHT22;57716;50.896;4.440;2023-03-01T04:23:05;-1.80;99.90
70309;DHT22;57716;50.896;4.440;2023-03-01T04:25:45;-2.00;99.90
70309;DHT22;57716;50.896;4.440;2023-03-01T04:28:11;-1.80;99.90
70309;DHT22;57716;50.896;4.440;2023-03-01T04:30:38;-1.90;99.90
70309;DHT22;57716;50.896;4.440;2023-03-01T04:33:09;-2.20;99.90
70309;DHT22;57716;50.896;4.440;2023-03-01T04:35:37;-2.40;99.90
70309;DHT22;57716;50.896;4.440;2023-03-01T04:38:04;-2.30;99.90
70309;DHT22;57716;50.896;4.440;2023-03-01T04:40:31;-2.40;99.90
70309;DHT22;57716;50.896;4.440;2023-03-01T04:42:57;-2.40;99.90
70309;DHT22;57716;50.896;4.440;2023-03-01T04:45:23;-2.20;99.90
70309;DHT22;57716;50.896;4.440;2023-03-01T04:47:48;-2.30;99.90
70309;DHT22;57716;50.896;4.440;2023-03-01T04:50:16;-2.10;99.90
70309;DHT22;57716;50.896;4.440;2023-03-01T04:52:43;-2.40;99.90
70309;DHT22;57716;50.896;4.440;2023-03-01T04:55:10;-2.30;99.90
70309;DHT22;57716;50.896;4.440;2023-03-01T04:57:36;-2.20;99.90
70309;DHT22;57716;50.896;4.440;2023-03-01T05:00:04;-2.40;99.90
70309;DHT22;57716;50.896;4.440;2023-03-01T05:02:59;-2.50;99.90
70309;DHT22;57716;50.896;4.440;2023-03-01T05:05:31;-2.50;99.90
70309;DHT22;57716;50.896;4.440;2023-03-01T05:07:59;-2.40;99.90
70309;DHT22;57716;50.896;4.440;2023-03-01T05:10:26;-2.40;99.90
70309;DHT22;57716;50.896;4.440;2023-03-01T05:12:54;-2.30;99.90
70309;DHT22;57716;50.896;4.440;2023-03-01T05:15:20;-2.50;99.90
70309;DHT22;57716;50.896;4.440;2023-03-01T05:17:48;-2.50;99.90
70309;DHT22;57716;50.896;4.440;2023-03-01T05:20:14;-2.30;99.90
70309;DHT22;57716;50.896;4.440;2023-03-01T05:22:40;-2.50;99.90
70309;DHT22;57716;50.896;4.440;2023-03-01T05:25:06;-2.40;99.90
70309;DHT22;57716;50.896;4.440;2023-03-01T05:27:33;-2.40;99.90
70309;DHT22;57716;50.896;4.440;2023-03-01T05:29:58;-2.40;99.90
70309;DHT22;57716;50.896;4.440;2023-03-01T05:32:24;-2.30;99.90
70309;DHT22;57716;50.896;4.440;2023-03-01T05:34:50;-2.30;99.90
70309;DHT22;57716;50.896;4.440;2023-03-01T05:37:17;-2.10;99.90
70309;DHT22;57716;50.896;4.440;2023-03-01T05:39:44;-1.80;99.90
70309;DHT22;57716;50.896;4.440;2023-03-01T05:42:11;-2.00;99.90
70309;DHT22;57716;50.896;4.440;2023-03-01T05:44:37;-2.20;99.90
70309;DHT22;57716;50.896;4.440;2023-03-01T05:47:03;-2.30;99.90
70309;DHT22;57716;50.896;4.440;2023-03-01T05:49:28;-2.40;99.90
70309;DHT22;57716;50.896;4.440;2023-03-01T05:51:55;-2.40;99.90
70309;DHT22;57716;50.896;4.440;2023-03-01T05:54:21;-2.40;99.90
70309;DHT22;57716;50.896;4.440;2023-03-01T05:56:47;-2.10;99.90
70309;DHT22;57716;50.896;4.440;2023-03-01T05:59:13;-2.30;99.90
70309;DHT22;57716;50.896;4.440;2023-03-01T06:01:40;-1.80;99.90
70309;DHT22;57716;50.896;4.440;2023-03-01T06:04:06;-2.10;99.90
70309;DHT22;57716;50.896;4.440;2023-03-01T06:06:35;-2.30;99.90
70309;DHT22;57716;50.896;4.440;2023-03-01T06:09:03;-2.20;99.90
70309;DHT22;57716;50.896;4.440;2023-03-01T06:11:29;-2.60;99.90
70309;DHT22;57716;50.896;4.440;2023-03-01T06:13:55;-2.60;99.90
70309;DHT22;57716;50.896;4.440;2023-03-01T06:16:21;-2.40;99.90
70309;DHT22;57716;50.896;4.440;2023-03-01T06:18:46;-2.50;99.90
70309;DHT22;57716;50.896;4.440;2023-03-01T06:21:12;-2.80;99.90
70309;DHT22;57716;50.896;4.440;2023-03-01T06:23:38;-2.70;99.90
70309;DHT22;57716;50.896;4.440;2023-03-01T06:26:08;-2.80;99.90
70309;DHT22;57716;50.896;4.440;2023-03-01T06:28:34;-2.40;99.90
70309;DHT22;57716;50.896;4.440;2023-03-01T06:31:00;-2.40;99.90
70309;DHT22;57716;50.896;4.440;2023-03-01T06:33:26;-2.20;99.90
70309;DHT22;57716;50.896;4.440;2023-03-01T06:35:56;-2.10;99.90
70309;DHT22;57716;50.896;4.440;2023-03-01T06:38:23;-2.20;99.90
70309;DHT22;57716;50.896;4.440;2023-03-01T06:40:53;-2.60;99.90
70309;DHT22;57716;50.896;4.440;2023-03-01T06:43:20;-2.50;99.90
70309;DHT22;57716;50.896;4.440;2023-03-01T06:45:45;-2.50;99.90
70309;DHT22;57716;50.896;4.440;2023-03-01T06:48:11;-2.50;99.90
70309;DHT22;57716;50.896;4.440;2023-03-01T06:50:37;-2.60;99.90
70309;DHT22;57716;50.896;4.440;2023-03-01T06:53:03;-2.60;99.90
70309;DHT22;57716;50.896;4.440;2023-03-01T06:55:29;-2.50;99.90
70309;DHT22;57716;50.896;4.440;2023-03-01T06:57:56;-2.30;99.90
70309;DHT22;57716;50.896;4.440;2023-03-01T07:00:23;-2.10;99.90
70309;DHT22;57716;50.896;4.440;2023-03-01T07:02:49;-2.30;99.90
70309;DHT22;57716;50.896;4.440;2023-03-01T07:05:15;-2.50;99.90
70309;DHT22;57716;50.896;4.440;2023-03-01T07:07:40;-2.60;99.90
70309;DHT22;57716;50.896;4.440;2023-03-01T07:10:07;-2.60;99.90
70309;DHT22;57716;50.896;4.440;2023-03-01T07:12:33;-2.40;99.90
70309;DHT22;57716;50.896;4.440;2023-03-01T07:14:58;-2.40;99.90
70309;DHT22;57716;50.896;4.440;2023-03-01T07:17:24;-2.30;99.90
70309;DHT22;57716;50.896;4.440;2023-03-01T07:19:50;-2.60;99.90
70309;DHT22;57716;50.896;4.440;2023-03-01T07:22:16;-2.50;99.90
70309;DHT22;57716;50.896;4.440;2023-03-01T07:24:42;-2.30;99.90
70309;DHT22;57716;50.896;4.440;2023-03-01T07:27:08;-2.50;99.90
70309;DHT22;57716;50.896;4.440;2023-03-01T07:29:34;-2.20;99.90
70309;DHT22;57716;50.896;4.440;2023-03-01T07:32:03;-2.20;99.90
70309;DHT22;57716;50.896;4.440;2023-03-01T07:34:29;-2.20;99.90
70309;DHT22;57716;50.896;4.440;2023-03-01T07:36:55;-2.10;99.90
70309;DHT22;57716;50.896;4.440;2023-03-01T07:39:21;-1.80;99.90
70309;DHT22;57716;50.896;4.440;2023-03-01T07:41:49;-1.90;99.90
70309;DHT22;57716;50.896;4.440;2023-03-01T07:44:14;-1.90;99.90
70309;DHT22;57716;50.896;4.440;2023-03-01T07:46:42;-1.50;99.90
70309;DHT22;57716;50.896;4.440;2023-03-01T07:49:07;-1.50;99.90
70309;DHT22;57716;50.896;4.440;2023-03-01T07:51:33;-1.10;99.90
70309;DHT22;57716;50.896;4.440;2023-03-01T07:53:59;-1.30;99.90
70309;DHT22;57716;50.896;4.440;2023-03-01T07:56:24;-1.30;99.90
70309;DHT22;57716;50.896;4.440;2023-03-01T07:58:50;-1.20;99.90
70309;DHT22;57716;50.896;4.440;2023-03-01T08:01:18;-1.20;99.90
70309;DHT22;57716;50.896;4.440;2023-03-01T08:03:44;-0.90;99.90
70309;DHT22;57716;50.896;4.440;2023-03-01T08:06:11;-0.90;99.90
70309;DHT22;57716;50.896;4.440;2023-03-01T08:08:37;-0.80;99.90
70309;DHT22;57716;50.896;4.440;2023-03-01T08:11:05;-0.60;99.90
70309;DHT22;57716;50.896;4.440;2023-03-01T08:13:31;-0.60;99.90
70309;DHT22;57716;50.896;4.440;2023-03-01T08:16:04;-0.50;99.90
70309;DHT22;57716;50.896;4.440;2023-03-01T08:18:31;-0.40;99.90
70309;DHT22;57716;50.896;4.440;2023-03-01T08:21:04;-0.30;99.90
70309;DHT22;57716;50.896;4.440;2023-03-01T08:23:30;-0.20;99.90
70309;DHT22;57716;50.896;4.440;2023-03-01T08:26:04;0.00;99.90
70309;DHT22;57716;50.896;4.440;2023-03-01T08:28:30;0.10;99.90
70309;DHT22;57716;50.896;4.440;2023-03-01T08:30:55;0.20;99.90
70309;DHT22;57716;50.896;4.440;2023-03-01T08:33:21;0.20;99.90
70309;DHT22;57716;50.896;4.440;2023-03-01T08:35:47;0.40;99.90
70309;DHT22;57716;50.896;4.440;2023-03-01T08:38:13;0.30;99.90
70309;DHT22;57716;50.896;4.440;2023-03-01T08:40:38;0.50;99.90
70309;DHT22;57716;50.896;4.440;2023-03-01T08:43:04;0.60;99.90
70309;DHT22;57716;50.896;4.440;2023-03-01T08:45:30;0.60;99.90
70309;DHT22;57716;50.896;4.440;2023-03-01T08:47:55;0.90;99.90
70309;DHT22;57716;50.896;4.440;2023-03-01T08:50:23;0.70;99.90
70309;DHT22;57716;50.896;4.440;2023-03-01T08:52:50;0.90;99.90
70309;DHT22;57716;50.896;4.440;2023-03-01T08:55:16;1.00;99.90
70309;DHT22;57716;50.896;4.440;2023-03-01T08:57:43;1.10;99.90
70309;DHT22;57716;50.896;4.440;2023-03-01T09:00:09;1.10;99.90
70309;DHT22;57716;50.896;4.440;2023-03-01T09:02:36;1.20;99.90
70309;DHT22;57716;50.896;4.440;2023-03-01T09:05:03;1.40;99.90
70309;DHT22;57716;50.896;4.440;2023-03-01T09:07:29;1.30;99.90
70309;DHT22;57716;50.896;4.440;2023-03-01T09:09:54;1.40;99.90
70309;DHT22;57716;50.896;4.440;2023-03-01T09:12:21;1.40;99.90
70309;DHT22;57716;50.896;4.440;2023-03-01T09:14:47;1.50;99.90
70309;DHT22;57716;50.896;4.440;2023-03-01T09:17:12;1.60;99.90
70309;DHT22;57716;50.896;4.440;2023-03-01T09:19:38;1.80;99.90
70309;DHT22;57716;50.896;4.440;2023-03-01T09:22:04;1.90;99.90
70309;DHT22;57716;50.896;4.440;2023-03-01T09:24:30;2.00;99.90
70309;DHT22;57716;50.896;4.440;2023-03-01T09:26:56;2.00;99.90
70309;DHT22;57716;50.896;4.440;2023-03-01T09:29:22;2.10;99.90
70309;DHT22;57716;50.896;4.440;2023-03-01T09:31:48;2.20;99.90
70309;DHT22;57716;50.896;4.440;2023-03-01T09:34:14;2.30;99.90
70309;DHT22;57716;50.896;4.440;2023-03-01T09:36:41;2.50;99.90
70309;DHT22;57716;50.896;4.440;2023-03-01T09:39:07;2.40;99.90
70309;DHT22;57716;50.896;4.440;2023-03-01T09:44:34;2.60;99.90
70309;DHT22;57716;50.896;4.440;2023-03-01T09:47:02;2.80;99.90
70309;DHT22;57716;50.896;4.440;2023-03-01T09:49:33;2.90;99.90
70309;DHT22;57716;50.896;4.440;2023-03-01T09:54:55;3.00;99.90
70309;DHT22;57716;50.896;4.440;2023-03-01T09:57:33;3.10;99.90
70309;DHT22;57716;50.896;4.440;2023-03-01T10:00:24;3.20;99.90
70309;DHT22;57716;50.896;4.440;2023-03-01T10:06:21;3.50;99.90
70309;DHT22;57716;50.896;4.440;2023-03-01T10:08:53;3.40;99.90
70309;DHT22;57716;50.896;4.440;2023-03-01T10:11:24;3.50;99.90
70309;DHT22;57716;50.896;4.440;2023-03-01T10:19:15;3.80;99.90
70309;DHT22;57716;50.896;4.440;2023-03-01T10:21:45;3.70;99.90
70309;DHT22;57716;50.896;4.440;2023-03-01T10:24:14;3.80;99.90
70309;DHT22;57716;50.896;4.440;2023-03-01T10:26:44;3.90;99.90
70309;DHT22;57716;50.896;4.440;2023-03-01T10:29:13;4.00;99.90
70309;DHT22;57716;50.896;4.440;2023-03-01T10:31:51;4.20;99.90
70309;DHT22;57716;50.896;4.440;2023-03-01T10:34:26;4.20;99.90
70309;DHT22;57716;50.896;4.440;2023-03-01T10:36:56;4.20;99.90
70309;DHT22;57716;50.896;4.440;2023-03-01T10:39:25;4.20;99.90
70309;DHT22;57716;50.896;4.440;2023-03-01T10:44:42;4.30;99.90
70309;DHT22;57716;50.896;4.440;2023-03-01T10:47:22;4.50;99.90
70309;DHT22;57716;50.896;4.440;2023-03-01T10:50:02;4.70;99.90
70309;DHT22;57716;50.896;4.440;2023-03-01T10:52:37;4.90;99.90
70309;DHT22;57716;50.896;4.440;2023-03-01T10:57:49;4.90;99.90
70309;DHT22;57716;50.896;4.440;2023-03-01T11:02:49;4.70;99.90
70309;DHT22;57716;50.896;4.440;2023-03-01T11:05:19;4.90;99.90
70309;DHT22;57716;50.896;4.440;2023-03-01T11:07:55;4.90;99.90
70309;DHT22;57716;50.896;4.440;2023-03-01T11:10:30;5.00;99.90
70309;DHT22;57716;50.896;4.440;2023-03-01T11:13:18;5.20;99.90
70309;DHT22;57716;50.896;4.440;2023-03-01T11:16:10;5.20;99.90
70309;DHT22;57716;50.896;4.440;2023-03-01T11:18:37;5.40;99.90
70309;DHT22;57716;50.896;4.440;2023-03-01T11:21:03;5.50;99.90
70309;DHT22;57716;50.896;4.440;2023-03-01T11:23:30;5.50;99.90
70309;DHT22;57716;50.896;4.440;2023-03-01T11:26:07;5.60;99.90
70309;DHT22;57716;50.896;4.440;2023-03-01T11:28:37;5.70;99.90
70309;DHT22;57716;50.896;4.440;2023-03-01T11:31:06;5.70;98.50
70309;DHT22;57716;50.896;4.440;2023-03-01T11:36:53;6.00;98.00
70309;DHT22;57716;50.896;4.440;2023-03-01T11:44:38;6.00;99.90
70309;DHT22;57716;50.896;4.440;2023-03-01T11:47:10;5.80;99.20
70309;DHT22;57716;50.896;4.440;2023-03-01T11:49:50;5.90;97.90
70309;DHT22;57716;50.896;4.440;2023-03-01T11:55:24;6.00;98.90
70309;DHT22;57716;50.896;4.440;2023-03-01T12:06:34;6.20;95.50
70309;DHT22;57716;50.896;4.440;2023-03-01T12:14:27;6.30;95.90
70309;DHT22;57716;50.896;4.440;2023-03-01T12:19:51;6.40;94.30
70309;DHT22;57716;50.896;4.440;2023-03-01T12:22:43;6.20;97.40
70309;DHT22;57716;50.896;4.440;2023-03-01T12:25:35;6.40;97.60
70309;DHT22;57716;50.896;4.440;2023-03-01T12:36:31;6.80;91.70
70309;DHT22;57716;50.896;4.440;2023-03-01T12:39:24;6.80;90.80
70309;DHT22;57716;50.896;4.440;2023-03-01T12:48:04;7.00;94.20
70309;DHT22;57716;50.896;4.440;2023-03-01T12:50:43;7.00;90.40
70309;DHT22;57716;50.896;4.440;2023-03-01T12:53:35;7.10;87.90
70309;DHT22;57716;50.896;4.440;2023-03-01T12:56:15;7.30;89.90
70309;DHT22;57716;50.896;4.440;2023-03-01T12:58:51;7.30;90.80
70309;DHT22;57716;50.896;4.440;2023-03-01T13:04:29;7.60;86.40
70309;DHT22;57716;50.896;4.440;2023-03-01T13:07:30;7.50;91.10
70309;DHT22;57716;50.896;4.440;2023-03-01T13:13:11;7.40;89.10
70309;DHT22;57716;50.896;4.440;2023-03-01T13:15:38;7.10;85.20
70309;DHT22;57716;50.896;4.440;2023-03-01T13:20:45;7.20;88.50
70309;DHT22;57716;50.896;4.440;2023-03-01T13:26:03;7.10;88.30
70309;DHT22;57716;50.896;4.440;2023-03-01T13:31:03;7.10;85.80
70309;DHT22;57716;50.896;4.440;2023-03-01T13:35:56;7.20;86.60
70309;DHT22;57716;50.896;4.440;2023-03-01T13:38:47;7.40;81.70
70309;DHT22;57716;50.896;4.440;2023-03-01T13:44:32;7.50;84.30
70309;DHT22;57716;50.896;4.440;2023-03-01T13:49:53;7.40;82.10
70309;DHT22;57716;50.896;4.440;2023-03-01T13:54:59;7.30;85.60
70309;DHT22;57716;50.896;4.440;2023-03-01T13:57:33;7.60;84.50
70309;DHT22;57716;50.896;4.440;2023-03-01T14:00:01;7.90;80.10
70309;DHT22;57716;50.896;4.440;2023-03-01T14:02:27;8.10;78.90
70309;DHT22;57716;50.896;4.440;2023-03-01T14:04:59;8.20;78.80
70309;DHT22;57716;50.896;4.440;2023-03-01T14:07:27;8.00;82.70
70309;DHT22;57716;50.896;4.440;2023-03-01T14:10:00;7.90;80.10
70309;DHT22;57716;50.896;4.440;2023-03-01T14:15:25;8.00;75.60
70309;DHT22;57716;50.896;4.440;2023-03-01T14:20:27;8.10;74.70
70309;DHT22;57716;50.896;4.440;2023-03-01T14:22:55;7.70;73.80
70309;DHT22;57716;50.896;4.440;2023-03-01T14:25:33;7.80;77.10
70309;DHT22;57716;50.896;4.440;2023-03-01T14:30:52;8.10;78.10
70309;DHT22;57716;50.896;4.440;2023-03-01T14:38:40;7.70;77.70
70309;DHT22;57716;50.896;4.440;2023-03-01T14:41:21;7.80;76.60
70309;DHT22;57716;50.896;4.440;2023-03-01T14:43:55;7.70;80.80
70309;DHT22;57716;50.896;4.440;2023-03-01T14:46:51;8.00;77.40
70309;DHT22;57716;50.896;4.440;2023-03-01T14:49:19;7.80;79.30
70309;DHT22;57716;50.896;4.440;2023-03-01T14:51:53;8.20;82.60
70309;DHT22;57716;50.896;4.440;2023-03-01T14:54:24;8.30;80.40
70309;DHT22;57716;50.896;4.440;2023-03-01T14:56:51;8.40;75.40
70309;DHT22;57716;50.896;4.440;2023-03-01T14:59:21;8.00;77.30
70309;DHT22;57716;50.896;4.440;2023-03-01T15:01:48;8.00;76.20
70309;DHT22;57716;50.896;4.440;2023-03-01T15:04:14;8.40;76.60
70309;DHT22;57716;50.896;4.440;2023-03-01T15:06:41;8.70;71.60
70309;DHT22;57716;50.896;4.440;2023-03-01T15:09:14;9.10;71.60
70309;DHT22;57716;50.896;4.440;2023-03-01T15:11:44;8.60;72.90
70309;DHT22;57716;50.896;4.440;2023-03-01T15:14:42;8.40;73.70
70309;DHT22;57716;50.896;4.440;2023-03-01T15:17:33;8.00;75.70
70309;DHT22;57716;50.896;4.440;2023-03-01T15:20:03;8.20;73.90
70309;DHT22;57716;50.896;4.440;2023-03-01T15:22:30;8.40;72.10
70309;DHT22;57716;50.896;4.440;2023-03-01T15:24:56;8.30;71.90
70309;DHT22;57716;50.896;4.440;2023-03-01T15:27:25;7.90;74.20
70309;DHT22;57716;50.896;4.440;2023-03-01T15:30:00;7.50;74.90
70309;DHT22;57716;50.896;4.440;2023-03-01T15:32:32;7.80;75.90
70309;DHT22;57716;50.896;4.440;2023-03-01T15:34:59;7.60;77.00
70309;DHT22;57716;50.896;4.440;2023-03-01T15:37:46;7.50;78.00
70309;DHT22;57716;50.896;4.440;2023-03-01T15:40:26;7.10;79.00
70309;DHT22;57716;50.896;4.440;2023-03-01T15:43:03;7.00;79.00
70309;DHT22;57716;50.896;4.440;2023-03-01T15:45:30;6.90;79.60
70309;DHT22;57716;50.896;4.440;2023-03-01T15:48:04;6.90;80.90
70309;DHT22;57716;50.896;4.440;2023-03-01T15:50:35;7.00;81.20
70309;DHT22;57716;50.896;4.440;2023-03-01T15:53:09;6.80;82.60
70309;DHT22;57716;50.896;4.440;2023-03-01T15:55:36;6.70;81.80
70309;DHT22;57716;50.896;4.440;2023-03-01T15:58:06;6.70;83.30
70309;DHT22;57716;50.896;4.440;2023-03-01T16:00:35;6.80;84.40
70309;DHT22;57716;50.896;4.440;2023-03-01T16:03:01;6.70;83.70
70309;DHT22;57716;50.896;4.440;2023-03-01T16:05:32;6.80;81.00
70309;DHT22;57716;50.896;4.440;2023-03-01T16:07:58;6.70;82.70
70309;DHT22;57716;50.896;4.440;2023-03-01T16:10:26;6.60;83.20
70309;DHT22;57716;50.896;4.440;2023-03-01T16:12:53;6.60;82.80
70309;DHT22;57716;50.896;4.440;2023-03-01T16:17:46;6.50;85.80
70309;DHT22;57716;50.896;4.440;2023-03-01T16:20:12;6.60;84.50
70309;DHT22;57716;50.896;4.440;2023-03-01T16:22:42;6.50;87.10
70309;DHT22;57716;50.896;4.440;2023-03-01T16:25:13;6.50;87.70
70309;DHT22;57716;50.896;4.440;2023-03-01T16:27:42;6.40;87.90
70309;DHT22;57716;50.896;4.440;2023-03-01T16:30:09;6.60;86.10
70309;DHT22;57716;50.896;4.440;2023-03-01T16:32:39;6.60;85.60
70309;DHT22;57716;50.896;4.440;2023-03-01T16:35:06;6.50;89.60
70309;DHT22;57716;50.896;4.440;2023-03-01T16:37:33;6.40;85.40
70309;DHT22;57716;50.896;4.440;2023-03-01T16:39:59;6.30;87.00
70309;DHT22;57716;50.896;4.440;2023-03-01T16:42:26;6.10;88.10
70309;DHT22;57716;50.896;4.440;2023-03-01T16:44:55;6.10;87.50
70309;DHT22;57716;50.896;4.440;2023-03-01T16:47:21;6.00;88.90
70309;DHT22;57716;50.896;4.440;2023-03-01T16:49:51;5.90;89.90
70309;DHT22;57716;50.896;4.440;2023-03-01T16:52:16;5.90;90.30
70309;DHT22;57716;50.896;4.440;2023-03-01T16:54:42;5.80;91.50
70309;DHT22;57716;50.896;4.440;2023-03-01T16:57:08;5.80;91.10
70309;DHT22;57716;50.896;4.440;2023-03-01T16:59:34;5.60;91.50
70309;DHT22;57716;50.896;4.440;2023-03-01T17:02:02;5.50;93.10
70309;DHT22;57716;50.896;4.440;2023-03-01T17:04:28;5.30;93.90
70309;DHT22;57716;50.896;4.440;2023-03-01T17:06:54;5.30;95.40
70309;DHT22;57716;50.896;4.440;2023-03-01T17:09:19;5.20;94.60
70309;DHT22;57716;50.896;4.440;2023-03-01T17:11:48;5.10;95.80
70309;DHT22;57716;50.896;4.440;2023-03-01T17:14:14;5.10;94.60
70309;DHT22;57716;50.896;4.440;2023-03-01T17:16:41;4.90;94.40
70309;DHT22;57716;50.896;4.440;2023-03-01T17:19:07;4.80;97.20
70309;DHT22;57716;50.896;4.440;2023-03-01T17:21:33;4.80;97.20
70309;DHT22;57716;50.896;4.440;2023-03-01T17:23:59;4.80;96.50
70309;DHT22;57716;50.896;4.440;2023-03-01T17:26:25;4.70;97.60
70309;DHT22;57716;50.896;4.440;2023-03-01T17:28:54;4.80;97.40
70309;DHT22;57716;50.896;4.440;2023-03-01T17:31:20;4.70;97.90
70309;DHT22;57716;50.896;4.440;2023-03-01T17:33:46;4.60;97.60
70309;DHT22;57716;50.896;4.440;2023-03-01T17:36:12;4.60;99.30
70309;DHT22;57716;50.896;4.440;2023-03-01T17:38:38;4.40;99.90
70309;DHT22;57716;50.896;4.440;2023-03-01T17:41:04;4.40;99.90
70309;DHT22;57716;50.896;4.440;2023-03-01T17:43:32;4.40;99.90
70309;DHT22;57716;50.896;4.440;2023-03-01T17:45:59;4.30;99.90
70309;DHT22;57716;50.896;4.440;2023-03-01T17:48:26;4.10;99.90